Date,TemperatureHighF,TemperatureAvgF,TemperatureLowF,DewpointHighF,DewpointAvgF,DewpointLowF,HumidityHigh,HumidityAvg,HumidityLow,PressureMaxIn,PressureMinIn,WindSpeedMaxMPH,WindSpeedAvgMPH,GustSpeedMaxMPH,PrecipitationSumIn
2013-1-1,13.0,11.3,9.0,10.0,7.7,6.0,87,84,80,0.00,40.00,5,4,7,0.00
2013-1-2,39.0,10.4,-5.0,11.0,-0.1,-9.0,94,68,23,0.00,40.00,5,2,6,0.00
2013-1-3,35.0,6.7,-7.0,10.0,-1.0,-11.0,90,74,27,0.00,40.00,6,-21,7,0.00
2013-1-4,37.0,1.6,-11.0,7.0,-6.4,-15.0,90,73,23,0.00,40.00,5,3,6,0.00
2013-1-5,38.0,5.1,-7.0,22.0,-3.3,-11.0,91,72,24,0.00,40.00,5,-21,6,0.00
2013-1-6,30.0,8.5,-3.0,13.0,2.3,-7.0,94,78,34,0.00,40.00,5,2,8,0.00
2013-1-7,36.0,13.0,-2.0,27.0,2.9,-99.9,92,73,30,0.00,40.00,5,3,7,0.00
2013-1-8,32.0,21.5,15.0,22.0,-3.0,-99.9,93,62,46,0.00,40.00,5,2,7,0.00
2013-1-9,44.0,22.2,11.0,40.0,17.5,4.0,96,56,30,0.00,40.00,5,3,9,0.00
2013-1-10,48.0,25.1,13.0,27.0,16.3,-99.9,100,54,32,0.00,40.00,16,6,26,0.02
2013-1-11,33.0,20.4,15.0,20.0,13.3,5.0,93,75,44,0.00,40.00,10,6,21,0.00
2013-1-12,31.0,15.2,0.0,14.0,7.7,-5.0,91,74,33,0.00,40.00,6,-43,9,0.01
2013-1-13,37.0,6.7,-4.0,4.0,-2.5,-9.0,89,70,21,0.00,40.00,6,-5,8,0.02
2013-1-14,31.0,-0.1,-11.0,-1.0,-8.5,-16.0,86,71,20,0.00,40.00,6,3,8,0.00
2013-1-15,32.0,10.2,-4.0,6.0,-1.0,-8.0,84,65,22,0.00,40.00,4,-28,6,0.00
2013-1-16,39.0,15.0,6.0,18.0,5.8,-2.0,100,70,24,0.00,40.00,5,-62,7,0.07
2013-1-17,41.0,9.4,-1.0,23.0,3.9,-4.0,92,80,25,0.00,40.00,6,3,7,0.00
2013-1-18,18.0,8.2,3.0,11.0,4.1,0.0,92,83,58,0.00,40.00,5,3,6,0.00
2013-1-19,19.0,7.6,0.0,9.0,2.9,-3.0,91,81,60,0.00,40.00,5,-5,7,0.00
2013-1-20,18.0,5.9,-4.0,9.0,1.8,-8.0,92,83,62,0.00,40.00,5,3,6,0.00
2013-1-21,20.0,7.6,0.0,10.0,3.0,-3.0,90,81,63,0.00,40.00,5,3,6,0.01
2013-1-22,22.0,9.6,0.0,11.0,4.4,-3.0,92,80,61,0.00,40.00,6,3,7,0.00
2013-1-23,23.0,14.5,6.0,16.0,9.3,3.0,91,80,66,0.00,40.00,4,2,6,0.00
2013-1-24,40.0,29.6,19.0,32.0,-35.8,-99.9,90,43,71,0.00,40.00,4,2,8,0.13
2013-1-25,44.0,37.7,33.0,-99.9,-99.9,-99.9,0,0,100,0.00,40.00,3,-249,5,0.00
2013-1-26,38.0,32.4,26.0,37.0,7.0,-99.9,100,69,81,0.00,40.00,6,-160,8,0.08
2013-1-27,34.0,-22.0,-39.0,33.0,-51.1,-80.0,97,30,7,0.00,40.00,13,-3,26,0.04
2013-1-28,29.0,23.8,17.0,26.0,19.9,10.0,96,86,63,0.00,40.00,7,3,10,0.31
2013-1-29,27.0,21.9,17.0,23.0,17.9,9.0,93,84,67,0.00,40.00,6,-5,11,0.09
2013-1-30,33.0,26.4,18.0,28.0,23.2,15.0,95,88,73,0.00,40.00,6,-5,11,0.14
2013-1-31,42.0,33.9,25.0,28.0,24.1,19.0,87,68,54,0.00,40.00,6,-8,8,0.00
2013-2-1,40.0,27.8,21.0,27.0,20.6,17.0,89,75,57,0.00,40.00,7,3,8,0.00
2013-2-2,34.0,17.7,-40.0,28.0,6.7,-98.0,91,70,5,0.00,40.00,6,-48,7,0.00
2013-2-3,35.0,23.7,-39.0,31.0,15.2,-97.0,94,73,59,0.00,40.00,5,3,7,0.00
2013-2-4,35.0,21.7,10.0,22.0,15.0,8.0,94,76,52,0.00,40.00,6,3,8,0.00
2013-2-5,33.0,23.1,-39.0,25.0,15.6,-52.0,86,73,48,0.00,40.00,5,3,8,0.00
2013-2-6,45.0,18.1,-40.0,41.0,1.3,-98.0,91,59,8,0.00,40.00,6,-7,9,0.00
2013-2-7,104.0,-17.0,-40.0,16.0,-70.6,-98.0,86,9,5,0.00,40.00,8,4,13,0.00
2013-2-8,-39.0,-39.3,-40.0,-78.0,-84.7,-98.0,8,5,8,0.00,40.00,10,5,15,0.00
2013-2-9,101.0,24.2,-40.0,41.0,16.4,-95.0,96,78,13,0.00,40.00,7,4,13,0.01
2013-2-10,33.0,3.3,-39.0,25.0,-18.7,-97.0,96,60,1,0.00,40.00,7,-146,11,0.03
2013-2-11,102.0,-35.2,-40.0,-8.0,-94.2,-98.0,56,1,56,0.00,40.00,7,-46,8,0.03
2013-2-12,104.0,-25.1,-40.0,18.0,-76.3,-98.0,86,13,1,0.00,40.00,6,-44,8,0.00
2013-2-13,29.0,6.3,-39.0,21.0,-13.9,-99.9,87,59,30,0.00,40.00,5,-105,6,0.00
2013-2-14,-39.0,-39.4,-40.0,-40.0,-94.2,-98.0,99,4,22,0.00,40.00,6,3,7,0.00
2013-2-15,-39.0,-39.5,-40.0,-98.0,-98.0,-98.0,0,0,100,0.00,40.00,7,-8,8,0.00
2013-2-16,-39.0,-39.4,-40.0,-41.0,-95.5,-98.0,93,3,35,0.00,40.00,6,3,8,0.00
2013-2-17,98.0,-36.3,-40.0,16.0,-87.0,-98.0,100,11,1,0.00,40.00,8,4,12,0.00
2013-3-4,37.0,29.1,25.0,12.0,9.4,6.0,50,43,31,0.00,40.00,9,6,12,0.00
2013-3-5,54.0,35.0,18.0,20.0,11.6,6.0,58,40,15,0.00,40.00,11,4,16,0.00
2013-3-6,58.0,46.9,34.0,31.0,19.9,14.0,67,36,20,0.00,40.00,15,6,26,0.00
2013-3-7,51.0,39.9,35.0,33.0,31.0,29.0,86,71,48,0.00,40.00,6,-5,11,0.00
2013-3-8,43.0,38.4,34.0,36.0,32.0,29.0,90,78,66,0.00,40.00,6,-39,8,0.00
2013-3-9,43.0,37.3,33.0,35.0,27.5,20.0,95,70,42,0.00,40.00,14,5,24,0.06
2013-3-10,48.0,36.9,28.0,27.0,20.5,16.0,63,52,33,0.00,40.00,10,4,13,0.00
2013-3-11,52.0,39.0,28.0,31.0,25.4,20.0,74,59,37,0.00,40.00,8,4,9,0.00
2013-3-12,56.0,46.7,37.0,35.0,31.3,26.0,78,56,37,0.00,40.00,8,4,10,0.00
2013-3-13,65.0,49.7,36.0,39.0,30.1,23.0,72,49,28,0.00,40.00,10,4,13,0.00
2013-3-14,72.0,56.2,42.0,38.0,26.8,23.0,55,34,18,0.00,40.00,8,4,11,0.00
2013-3-15,68.0,56.2,43.0,38.0,29.2,25.0,60,37,20,0.00,40.00,9,5,12,0.00
2013-3-16,57.0,50.5,45.0,33.0,27.7,24.0,49,41,33,0.00,40.00,9,5,12,0.00
2013-3-17,46.0,40.5,32.0,27.0,22.2,18.0,63,48,38,0.00,40.00,14,8,22,0.00
2013-3-18,53.0,40.7,32.0,24.0,18.3,12.0,65,42,20,0.00,40.00,14,5,20,0.00
2013-3-19,55.0,42.3,32.0,22.0,10.1,-16.0,60,32,5,0.00,40.00,8,5,11,0.00
2013-3-20,60.0,47.5,36.0,40.0,21.7,7.0,78,37,23,0.00,40.00,10,4,13,0.00
2013-3-21,52.0,39.6,31.0,38.0,25.8,14.0,90,60,30,0.00,40.00,15,6,23,0.07
2013-3-22,34.0,28.6,26.0,26.0,18.7,13.0,91,67,49,0.00,40.00,14,5,18,0.01
2013-3-23,33.0,26.4,21.0,21.0,16.3,7.0,89,66,43,0.00,40.00,10,5,15,0.06
2013-3-24,39.0,29.1,21.0,17.0,12.2,8.0,68,50,32,0.00,40.00,9,5,17,0.00
2013-3-25,49.0,35.4,23.0,26.0,14.2,7.0,55,43,25,0.00,40.00,7,4,10,0.00
2013-3-26,63.0,46.0,34.0,29.0,23.4,18.0,62,43,19,0.00,40.00,10,4,15,0.00
2013-3-27,64.0,49.6,36.0,31.0,25.6,19.0,72,42,18,0.00,40.00,7,4,18,0.00
2013-3-28,67.0,54.5,41.0,30.0,25.7,19.0,53,34,17,0.00,40.00,14,-2,21,0.00
2013-3-29,63.0,53.7,45.0,40.0,32.2,30.0,59,45,31,0.00,40.00,13,5,21,0.00
2013-3-30,65.0,52.9,41.0,37.0,30.5,23.0,66,44,26,0.00,40.00,10,5,15,0.00
2013-3-31,68.0,54.3,38.0,33.0,25.8,22.0,55,35,19,0.00,40.00,13,5,21,0.00
2013-4-1,56.0,49.7,45.0,42.0,36.1,31.0,85,60,39,0.00,40.00,16,6,24,0.18
2013-4-2,58.0,46.4,40.0,41.0,38.4,35.0,96,76,47,0.00,40.00,9,-41,11,0.21
2013-4-3,66.0,51.5,39.0,41.0,33.9,21.0,79,54,19,0.00,40.00,9,4,15,0.00
2013-4-4,69.0,57.7,44.0,39.0,30.9,25.0,59,39,20,0.00,40.00,10,5,19,0.00
2013-4-5,63.0,53.4,43.0,43.0,34.3,25.0,96,52,24,0.00,40.00,14,5,27,0.19
2013-4-6,58.0,49.5,42.0,42.0,34.2,28.0,75,56,41,0.00,40.00,9,4,14,0.01
2013-4-7,60.0,49.9,39.0,38.0,32.8,26.0,80,54,30,0.00,40.00,8,4,15,0.00
2013-4-8,59.0,43.3,36.0,39.0,33.9,17.0,93,74,19,0.00,40.00,17,7,26,0.37
2013-4-9,39.0,32.3,26.0,32.0,20.8,14.0,91,64,36,0.00,40.00,14,6,20,0.02
2013-4-10,50.0,37.8,27.0,30.0,22.2,16.0,69,54,35,0.00,40.00,7,5,14,0.00
2013-4-11,55.0,45.1,38.0,40.0,33.8,27.0,95,67,38,0.00,40.00,7,-19,12,0.09
2013-4-12,59.0,46.8,34.0,34.0,27.6,17.0,73,49,28,0.00,40.00,10,5,14,0.00
2013-4-13,64.0,49.1,38.0,41.0,27.5,15.0,79,46,22,0.00,40.00,16,6,28,0.00
2013-4-14,48.0,40.8,32.0,23.0,15.3,5.0,58,36,25,0.00,40.00,8,5,13,0.00
2013-4-15,47.0,39.0,31.0,37.0,30.4,18.0,97,74,39,0.00,40.00,10,4,18,0.23
2013-4-16,40.0,35.0,32.0,34.0,30.2,22.0,97,83,57,0.00,40.00,8,-11,12,0.25
2013-4-17,42.0,35.7,30.0,24.0,18.4,12.0,76,50,33,0.00,40.00,14,8,22,0.00
2013-4-18,46.0,36.5,25.0,20.0,14.6,7.0,69,43,23,0.00,40.00,12,6,19,0.00
2013-4-19,56.0,42.7,29.0,35.0,21.5,13.0,63,43,26,0.00,40.00,10,4,16,0.00
2013-4-20,52.0,44.6,37.0,41.0,36.2,32.0,94,74,50,0.00,40.00,10,5,16,0.52
2013-4-21,63.0,49.1,37.0,38.0,30.4,24.0,75,51,23,0.00,40.00,7,4,14,0.00
2013-4-22,52.0,46.6,38.0,34.0,27.9,18.0,69,49,31,0.00,40.00,13,7,19,0.00
2013-4-23,49.0,40.1,29.0,24.0,18.2,10.0,70,43,21,0.00,40.00,7,-11,12,0.00
2013-4-24,58.0,45.8,35.0,27.0,18.6,11.0,54,35,16,0.00,40.00,7,4,11,0.00
2013-4-25,63.0,48.3,33.0,30.0,21.5,13.0,60,37,17,0.00,40.00,8,5,12,0.00
2013-4-26,68.0,53.8,38.0,31.0,19.5,5.0,40,26,16,0.00,40.00,8,4,11,0.00
2013-4-27,70.0,57.7,41.0,36.0,25.9,19.0,49,31,18,0.00,40.00,8,4,13,0.00
2013-4-28,77.0,60.9,44.0,38.0,29.9,23.0,55,33,16,0.00,40.00,9,4,14,0.00
2013-4-29,74.0,60.7,47.0,39.0,32.4,27.0,52,36,18,0.00,40.00,9,-3,17,0.00
2013-4-30,61.0,53.5,43.0,37.0,25.7,12.0,57,35,19,0.00,40.00,12,7,19,0.00
2013-5-1,49.0,40.8,35.0,24.0,15.7,9.0,53,36,26,0.00,40.00,12,7,19,0.00
2013-5-2,60.0,45.0,31.0,23.0,16.5,12.0,50,33,18,0.00,40.00,8,5,13,0.00
2013-5-3,69.0,52.5,34.0,28.0,21.6,7.0,57,33,9,0.00,40.00,8,5,12,0.00
2013-5-4,68.0,56.1,42.0,31.0,22.6,13.0,41,28,15,0.00,40.00,9,4,11,0.00
2013-5-5,74.0,60.5,48.0,41.0,31.9,20.0,60,36,17,0.00,40.00,13,5,19,0.00
2013-5-6,66.0,57.1,52.0,42.0,34.4,20.0,62,44,18,0.00,40.00,15,7,22,0.00
2013-5-7,62.0,50.3,40.0,44.0,38.4,34.0,91,65,35,0.00,40.00,16,4,23,0.15
2013-5-8,63.0,50.6,39.0,46.0,40.3,36.0,93,69,43,0.00,40.00,10,4,16,0.02
2013-5-9,70.0,56.6,43.0,46.0,40.1,35.0,86,57,29,0.00,40.00,7,4,11,0.00
2013-5-10,76.0,60.9,47.0,44.0,35.5,-99.9,67,43,20,0.00,40.00,7,4,11,0.00
2013-5-11,77.0,63.5,47.0,43.0,34.8,-99.9,67,38,17,0.00,40.00,8,4,12,0.00
2013-5-12,81.0,66.9,49.0,44.0,35.1,28.0,54,33,17,0.00,40.00,8,-11,11,0.00
2013-5-13,88.0,71.9,54.0,45.0,36.2,29.0,58,30,13,0.00,40.00,10,-4,15,0.00
2013-5-14,85.0,71.0,56.0,54.0,39.7,29.0,64,33,18,0.00,40.00,9,-79,13,0.00
2013-5-15,83.0,71.2,57.0,50.0,37.5,26.0,60,31,14,0.00,40.00,11,-64,17,0.00
2013-5-16,83.0,64.5,52.0,48.0,23.1,-99.9,66,35,12,0.00,40.00,11,-11,25,0.00
2013-5-17,65.0,57.8,50.0,49.0,40.7,-99.9,93,60,35,0.00,40.00,14,-3,27,0.01
2013-5-18,62.0,51.9,45.0,48.0,43.7,38.0,95,75,43,0.00,40.00,9,4,16,0.04
2013-5-19,58.0,51.0,43.0,47.0,40.7,33.0,91,69,44,0.00,40.00,14,5,19,0.01
2013-5-20,59.0,48.9,45.0,47.0,42.9,38.0,96,81,59,0.00,40.00,9,4,14,0.22
2013-5-21,75.0,65.6,54.0,48.0,38.0,25.0,63,38,16,0.00,40.00,10,5,16,0.00
2013-5-22,81.0,68.1,49.0,44.0,31.2,17.0,67,29,10,0.00,40.00,14,7,23,0.00
2013-5-23,74.0,63.8,49.0,44.0,36.0,14.0,59,39,10,0.00,40.00,12,5,20,0.00
2013-5-24,74.0,57.3,41.0,49.0,34.1,25.0,75,44,23,0.00,40.00,9,-18,11,0.00
2013-5-25,81.0,66.8,48.0,48.0,26.7,9.0,69,26,8,0.00,40.00,12,6,20,0.00
2013-5-26,81.0,71.0,58.0,39.0,23.0,13.0,39,18,10,0.00,40.00,13,6,21,0.00
2013-5-27,73.0,63.1,50.0,49.0,37.8,18.0,61,42,13,0.00,40.00,9,5,14,0.00
2013-5-28,64.0,53.5,47.0,48.0,42.3,35.0,94,68,45,0.00,40.00,11,5,26,0.38
2013-5-29,65.0,51.2,41.0,47.0,41.8,35.0,95,73,36,0.00,40.00,11,4,19,0.00
2013-5-30,67.0,55.3,42.0,44.0,39.1,35.0,84,57,32,0.00,40.00,9,5,15,0.00
2013-5-31,67.0,55.8,43.0,40.0,33.4,21.0,74,45,22,0.00,40.00,9,6,12,0.00
2013-6-1,79.0,60.2,44.0,41.0,29.8,23.0,49,33,16,0.00,40.00,9,5,12,0.00
2013-6-2,88.0,70.9,47.0,45.0,30.5,17.0,59,27,9,0.00,40.00,11,6,19,0.00
2013-6-3,82.0,65.6,53.0,42.0,33.3,14.0,53,32,8,0.00,40.00,12,5,22,0.00
2013-6-4,77.0,63.3,47.0,47.0,33.7,20.0,57,34,18,0.00,40.00,10,5,14,0.00
2013-6-5,79.0,66.2,52.0,46.0,39.0,33.0,61,38,22,0.00,40.00,9,5,11,0.00
2013-6-6,84.0,68.1,52.0,48.0,36.3,27.0,50,32,18,0.00,40.00,9,5,13,0.00
2013-6-7,86.0,71.3,55.0,58.0,39.4,31.0,48,32,16,0.00,40.00,10,-4,13,0.00
2013-6-8,83.0,71.5,58.0,52.0,40.7,28.0,59,35,18,0.00,40.00,8,5,13,0.00
2013-6-9,97.0,75.6,55.0,55.0,38.5,28.0,51,28,13,0.00,40.00,11,5,16,0.00
2013-6-10,91.0,81.2,65.0,52.0,32.9,16.0,46,20,7,0.00,40.00,11,6,20,0.00
2013-6-11,86.0,77.6,64.0,37.0,27.1,15.0,32,16,10,0.00,40.00,13,7,22,0.00
2013-6-12,88.0,74.4,56.0,53.0,34.4,24.0,60,26,11,0.00,40.00,12,6,30,0.00
2013-6-13,86.0,76.9,58.0,48.0,35.6,15.0,57,25,7,0.00,40.00,17,8,30,0.00
2013-6-14,74.0,61.2,48.0,44.0,38.1,32.0,72,44,25,0.00,40.00,8,5,13,0.00
2013-6-15,83.0,63.9,46.0,49.0,37.7,23.0,65,42,12,0.00,40.00,10,5,13,0.00
2013-6-16,88.0,72.0,52.0,44.0,28.4,15.0,48,23,7,0.00,40.00,9,-4,18,0.00
2013-6-17,89.0,73.2,54.0,45.0,26.9,15.0,39,19,9,0.00,40.00,10,4,15,0.00
2013-6-18,89.0,74.5,55.0,45.0,25.7,15.0,44,18,9,0.00,40.00,9,5,18,0.00
2013-6-19,81.0,72.2,56.0,36.0,25.1,15.0,36,18,8,0.00,40.00,14,8,28,0.00
2013-6-20,74.0,55.6,44.0,41.0,35.1,31.0,73,48,23,0.00,40.00,6,5,11,0.00
2013-6-21,77.0,73.5,69.0,43.0,38.5,35.0,34,28,22,0.00,40.00,6,4,9,0.00
2013-6-22,76.0,68.1,57.0,46.0,41.2,32.0,51,38,27,0.00,40.00,7,5,12,0.00
2013-6-23,83.0,65.7,46.0,51.0,36.6,28.0,59,36,18,0.00,40.00,10,5,15,0.00
2013-6-24,79.0,73.8,66.0,44.0,35.5,28.0,44,25,19,0.00,40.00,11,7,19,0.00
2013-6-25,85.0,69.9,54.0,52.0,45.0,38.0,81,44,21,0.00,40.00,9,5,14,0.00
2013-6-26,93.0,78.8,61.0,52.0,45.2,35.0,54,33,14,0.00,40.00,9,4,16,0.00
2013-6-27,97.0,77.9,63.0,58.0,47.8,41.0,50,36,17,0.00,40.00,7,4,9,0.00
2013-6-28,98.0,81.5,66.0,60.0,49.0,44.0,53,33,19,0.00,40.00,14,6,23,0.00
2013-6-29,92.0,79.8,64.0,61.0,48.7,38.0,53,35,21,0.00,40.00,9,4,13,0.00
2013-6-30,96.0,83.0,72.0,59.0,47.6,39.0,43,30,19,0.00,40.00,10,5,16,0.00
2013-7-1,96.0,82.5,66.0,58.0,46.8,34.0,43,30,19,0.00,40.00,8,4,14,0.00
2013-7-2,94.0,81.0,66.0,57.0,49.0,41.0,49,34,23,0.00,40.00,7,4,10,0.00
2013-7-3,93.0,80.2,67.0,62.0,50.6,38.0,52,36,25,0.00,40.00,8,4,11,0.00
2013-7-4,90.0,78.0,67.0,62.0,55.7,44.0,78,48,28,0.00,40.00,9,5,15,0.00
2013-7-5,88.0,73.5,62.0,61.0,57.1,49.0,89,59,33,0.00,40.00,13,5,21,0.06
2013-7-6,88.0,72.7,62.0,60.0,54.1,47.0,78,55,25,0.00,40.00,15,6,21,0.00
2013-7-7,85.0,73.3,62.0,61.0,53.4,45.0,73,51,30,0.00,40.00,15,6,25,0.02
2013-7-8,91.0,74.1,64.0,57.0,49.3,41.0,61,43,25,0.00,40.00,15,6,22,0.00
2013-7-9,92.0,77.1,63.0,55.0,41.1,27.0,51,30,11,0.00,40.00,9,5,15,0.00
2013-7-10,96.0,76.0,59.0,47.0,33.5,-99.9,50,24,11,0.00,40.00,10,5,14,0.00
2013-7-11,88.0,73.9,64.0,59.0,47.5,26.0,79,42,15,0.00,40.00,15,-12,27,0.00
2013-7-12,85.0,69.3,61.0,64.0,58.2,49.0,96,70,37,0.00,40.00,8,-21,14,0.30
2013-7-13,83.0,73.5,62.0,61.0,56.0,49.0,77,55,41,0.00,40.00,9,4,15,0.00
2013-7-14,88.0,81.1,76.0,59.0,51.1,46.0,40,36,25,0.00,40.00,9,6,13,0.00
2013-7-15,92.0,75.2,64.0,59.0,52.5,45.0,66,46,26,0.00,40.00,16,5,23,0.00
2013-7-16,88.0,73.5,65.0,65.0,57.6,52.0,90,59,32,0.00,40.00,12,4,22,0.08
2013-7-17,89.0,74.1,63.0,65.0,59.6,53.0,91,63,35,0.00,40.00,18,5,25,0.00
2013-7-18,90.0,78.9,63.0,63.0,55.8,48.0,81,48,29,0.00,40.00,10,5,15,0.00
2013-7-19,94.0,76.6,62.0,59.0,49.6,35.0,69,42,16,0.00,40.00,9,4,11,0.00
2013-7-20,94.0,77.6,60.0,54.0,43.1,35.0,57,31,15,0.00,40.00,8,4,11,0.00
2013-7-21,93.0,76.1,58.0,53.0,41.5,32.0,54,30,15,0.00,40.00,15,5,23,0.00
2013-7-22,90.0,75.8,65.0,59.0,45.1,36.0,43,34,22,0.00,40.00,7,5,10,0.00
2013-7-23,92.0,76.6,62.0,53.0,43.5,32.0,51,32,18,0.00,40.00,7,4,10,0.00
2013-7-24,88.0,76.8,65.0,59.0,49.3,39.0,57,39,27,0.00,40.00,10,6,16,0.00
2013-7-25,93.0,78.2,63.0,59.0,49.8,42.0,70,40,18,0.00,40.00,7,4,9,0.00
2013-7-26,92.0,75.0,61.0,56.0,45.7,38.0,59,37,20,0.00,40.00,7,4,10,0.00
2013-7-27,82.0,74.6,65.0,61.0,54.1,40.0,81,51,24,0.00,40.00,16,5,26,0.00
2013-7-28,81.0,67.9,57.0,60.0,54.4,48.0,89,64,37,0.00,40.00,16,6,24,0.23
2013-7-29,83.0,69.9,58.0,59.0,52.4,47.0,81,55,35,0.00,40.00,16,5,25,0.04
2013-7-30,88.0,72.2,56.0,58.0,48.9,39.0,81,49,19,0.00,40.00,10,5,15,0.00
2013-7-31,91.0,76.8,61.0,52.0,44.7,39.0,58,34,16,0.00,40.00,10,5,18,0.00
2013-8-1,90.0,79.1,61.0,56.0,49.8,39.0,61,37,25,0.00,40.00,16,9,25,0.00
2013-8-2,89.0,77.3,61.0,50.0,43.1,33.0,57,32,16,0.00,40.00,10,5,18,0.00
2013-8-3,90.0,74.7,58.0,50.0,41.3,33.0,55,33,16,0.00,40.00,9,5,16,0.00
2013-8-4,91.0,77.7,59.0,52.0,41.7,35.0,54,29,15,0.00,40.00,9,5,16,0.00
2013-8-5,90.0,77.3,62.0,51.0,44.8,40.0,55,33,19,0.00,40.00,8,4,17,0.00
2013-8-6,90.0,74.2,62.0,56.0,42.6,36.0,58,33,21,0.00,40.00,11,5,19,0.00
2013-8-7,88.0,74.4,62.0,51.0,43.5,38.0,51,34,20,0.00,40.00,16,7,26,0.00
2013-8-8,85.0,73.5,63.0,52.0,44.8,39.0,60,37,25,0.00,40.00,13,6,20,0.04
2013-8-9,83.0,70.1,56.0,53.0,42.2,33.0,57,37,27,0.00,40.00,13,6,18,0.00
2013-8-10,86.0,72.5,57.0,54.0,42.9,38.0,62,36,18,0.00,40.00,14,7,19,0.00
2013-8-11,88.0,75.0,61.0,52.0,43.4,37.0,57,33,21,0.00,40.00,13,6,19,0.00
2013-8-12,86.0,71.9,60.0,49.0,41.8,36.0,55,35,22,0.00,40.00,12,6,18,0.00
2013-8-13,90.0,71.8,56.0,46.0,32.0,-99.9,61,29,12,0.00,40.00,11,5,15,0.00
2013-8-14,92.0,73.1,60.0,47.0,38.1,32.0,46,30,15,0.00,40.00,7,4,8,0.00
2013-8-15,91.0,53.8,58.0,44.0,0.1,-99.9,46,22,12,0.00,40.00,10,5,13,0.00
2013-8-16,93.0,69.5,61.0,47.0,23.1,-99.9,36,24,16,0.00,40.00,6,5,9,0.00
2013-8-17,89.0,72.3,62.0,56.0,40.2,-99.9,56,36,26,0.00,40.00,19,8,27,0.00
2013-8-18,88.0,74.5,61.0,55.0,50.9,47.0,63,45,31,0.00,40.00,7,4,13,0.00
2013-8-19,83.0,70.8,66.0,52.0,47.1,45.0,48,44,35,0.00,40.00,6,5,9,0.00
2013-8-21,87.0,80.8,70.0,55.0,51.2,45.0,50,36,30,0.00,40.00,8,5,14,0.00
2013-8-22,88.0,77.1,64.0,60.0,53.2,45.0,87,46,29,0.00,40.00,9,-39,13,0.00
2013-8-23,71.0,66.0,63.0,60.0,57.4,51.0,85,74,52,0.00,40.00,9,4,16,0.01
2013-8-24,80.0,64.3,56.0,56.0,47.9,-99.9,89,62,39,0.00,40.00,11,6,18,0.00
2013-8-25,80.0,67.9,58.0,56.0,52.0,49.0,76,58,40,0.00,40.00,10,4,16,0.00
2013-8-26,71.0,67.7,62.0,65.0,56.7,51.0,80,68,57,0.00,40.00,5,3,10,0.00
2013-8-27,73.0,67.0,61.0,61.0,57.3,55.0,82,72,58,0.00,40.00,5,-198,6,0.00
2013-8-28,87.0,77.6,68.0,63.0,59.1,52.0,70,54,40,0.00,40.00,10,5,15,0.70
2013-8-29,88.0,72.1,59.0,62.0,55.8,51.0,82,59,36,0.00,40.00,6,3,8,0.00
2013-8-30,90.0,76.2,64.0,60.0,55.5,49.0,65,51,31,0.00,40.00,5,4,7,0.00
2013-8-31,81.0,71.1,64.0,60.0,50.4,-99.9,71,54,46,0.00,40.00,8,4,11,0.00
2013-9-1,83.0,69.5,63.0,67.0,60.1,53.0,90,73,47,0.00,40.00,7,3,11,0.02
2013-9-2,86.0,74.9,65.0,63.0,58.0,53.0,85,59,35,0.00,40.00,12,6,17,0.00
2013-9-3,85.0,69.6,57.0,63.0,56.7,52.0,90,67,38,0.00,40.00,8,4,14,0.00
2013-9-4,84.0,72.7,60.0,62.0,57.2,52.0,91,61,37,0.00,40.00,12,5,17,0.00
2013-9-5,82.0,74.8,65.0,58.0,54.8,52.0,63,50,40,0.00,40.00,13,6,21,0.06
2013-9-6,90.0,76.2,64.0,57.0,52.5,47.0,69,47,23,0.00,40.00,8,5,14,0.00
2013-9-7,83.0,67.0,57.0,59.0,55.1,51.0,98,69,41,0.00,40.00,5,4,7,0.00
2013-9-8,73.0,62.4,56.0,61.0,57.8,54.0,97,87,63,0.00,40.00,5,3,8,0.22
2013-9-9,77.0,65.3,56.0,58.0,53.9,51.0,84,68,47,0.00,40.00,6,-34,10,0.00
2013-9-10,72.0,64.9,60.0,57.0,55.2,52.0,86,72,54,0.00,40.00,7,4,12,0.00
2013-9-11,79.0,65.7,59.0,60.0,57.3,54.0,96,76,47,0.00,40.00,8,4,12,0.03
2013-9-12,64.0,60.9,58.0,57.0,53.7,50.0,89,78,61,0.00,40.00,12,6,16,0.14
2013-9-13,69.0,61.1,57.0,60.0,57.6,54.0,95,89,70,0.00,40.00,7,4,11,0.13
2013-9-14,72.0,58.9,56.0,59.0,50.4,-99.9,95,81,64,0.00,40.00,5,3,6,0.00
2013-9-15,79.0,64.2,53.0,61.0,55.5,51.0,95,75,50,0.00,40.00,5,3,7,0.00
2013-9-16,81.0,67.6,56.0,59.0,53.8,47.0,85,63,41,0.00,40.00,9,4,13,0.00
2013-9-17,82.0,73.6,68.0,53.0,47.3,39.0,51,40,22,0.00,40.00,13,8,23,0.00
2013-9-18,74.0,63.2,50.0,44.0,39.5,36.0,68,46,25,0.00,40.00,10,7,18,0.00
2013-9-19,68.0,54.0,42.0,44.0,37.3,33.0,76,56,28,0.00,40.00,7,4,9,0.00
2013-9-20,85.0,60.4,41.0,53.0,40.0,34.0,78,50,27,0.00,40.00,10,4,14,0.00
2013-9-21,84.0,68.0,52.0,45.0,39.4,35.0,62,38,21,0.00,40.00,8,5,13,0.00
2013-9-22,68.0,61.8,53.0,49.0,41.9,37.0,65,48,36,0.00,40.00,10,5,16,0.00
2013-9-23,66.0,55.0,46.0,45.0,39.4,36.0,77,58,37,0.00,40.00,8,4,10,0.00
2013-9-24,77.0,60.4,43.0,42.0,33.9,25.0,71,43,16,0.00,40.00,9,4,19,0.00
2013-9-25,70.0,57.0,41.0,47.0,36.5,28.0,91,55,21,0.00,40.00,10,7,22,0.12
2013-9-26,54.0,44.5,41.0,43.0,39.6,38.0,96,84,58,0.00,40.00,7,3,10,0.11
2013-9-27,47.0,41.0,38.0,41.0,37.8,33.0,96,88,70,0.00,40.00,8,4,15,0.32
2013-9-28,63.0,44.2,32.0,38.0,28.0,-99.9,92,61,39,0.00,40.00,7,4,10,0.00
2013-9-29,71.0,55.1,40.0,38.0,34.2,29.0,72,49,27,0.00,40.00,7,4,11,0.00
2013-9-30,73.0,60.0,49.0,39.0,34.9,32.0,59,42,22,0.00,40.00,7,5,10,0.00
2013-10-2,70.0,54.1,46.0,49.0,41.8,36.0,88,65,43,0.00,40.00,6,4,7,0.00
2013-10-3,48.0,43.9,39.0,44.0,35.1,26.0,90,72,51,0.00,40.00,7,4,13,0.00
2013-10-4,45.0,38.7,34.0,36.0,32.4,29.0,96,78,57,0.00,40.00,7,4,15,0.06
2013-10-5,53.0,41.3,30.0,33.0,30.2,27.0,89,67,42,0.00,40.00,6,5,9,0.00
2013-10-6,64.0,44.4,31.0,39.0,30.8,26.0,83,62,32,0.00,40.00,6,4,8,0.00
2013-10-7,72.0,52.0,37.0,47.0,36.0,29.0,81,57,25,0.00,40.00,6,-28,12,0.00
2013-10-8,70.0,52.4,41.0,41.0,32.3,24.0,73,50,19,0.00,40.00,8,5,16,0.00
2013-10-9,65.0,50.6,39.0,44.0,35.1,30.0,88,58,27,0.00,40.00,9,5,16,0.00
2013-10-10,48.0,45.1,43.0,44.0,42.4,38.0,96,90,80,0.00,40.00,8,4,15,0.27
2013-10-11,58.0,46.9,38.0,43.0,37.0,31.0,97,72,39,0.00,40.00,7,4,11,0.02
2013-10-12,65.0,46.2,34.0,43.0,27.9,-99.9,86,57,28,0.00,40.00,7,3,11,0.00
2013-10-13,55.0,49.6,42.0,45.0,39.5,32.0,97,71,42,0.00,40.00,8,4,12,0.06
2013-10-14,49.0,43.2,38.0,42.0,39.6,35.0,97,87,69,0.00,40.00,6,3,8,0.16
2013-10-15,51.0,42.0,35.0,36.0,33.4,29.0,89,73,42,0.00,40.00,6,4,9,0.00
2013-10-16,54.0,42.1,31.0,32.0,29.7,26.0,82,63,40,0.00,40.00,6,5,8,0.00
2013-10-17,58.0,43.9,33.0,32.0,27.1,23.0,68,53,37,0.00,40.00,7,4,10,0.00
2013-10-18,54.0,42.6,35.0,37.0,31.6,29.0,81,67,37,0.00,40.00,7,5,8,0.00
2013-10-19,58.0,41.3,33.0,36.0,26.0,-99.9,84,64,42,0.00,40.00,6,4,9,0.00
2013-10-20,61.0,45.8,34.0,32.0,29.8,27.0,81,57,28,0.00,40.00,6,4,7,0.00
2013-10-21,61.0,45.5,35.0,34.0,30.0,28.0,75,57,29,0.00,40.00,6,4,8,0.00
2013-10-22,62.0,47.7,34.0,35.0,31.4,29.0,81,56,34,0.00,40.00,6,4,8,0.00
2013-10-23,65.0,46.8,33.0,36.0,31.5,29.0,86,59,30,0.00,40.00,6,4,7,0.00
2013-10-24,57.0,45.4,35.0,35.0,31.4,29.0,85,59,44,0.00,40.00,7,5,9,0.00
2013-10-25,64.0,48.5,38.0,38.0,33.0,29.0,80,57,29,0.00,40.00,6,4,8,0.00
2013-10-26,62.0,44.4,35.0,34.0,23.5,-99.9,81,52,34,0.00,40.00,6,4,8,0.00
2013-10-27,68.0,53.0,38.0,32.0,27.2,25.0,64,41,20,0.00,40.00,9,5,13,0.00
2013-10-28,63.0,52.5,40.0,38.0,23.3,-99.9,93,44,21,0.00,40.00,14,8,27,0.00
2013-10-29,44.0,41.4,38.0,38.0,33.8,30.0,86,75,61,0.00,40.00,9,3,14,0.00
2013-10-30,48.0,40.1,35.0,37.0,34.3,31.0,94,81,55,0.00,40.00,4,3,7,0.00
2013-10-31,50.0,43.2,37.0,34.0,31.7,29.0,88,66,45,0.00,40.00,4,3,8,0.01
2013-11-1,56.0,47.9,41.0,33.0,30.8,28.0,69,52,40,0.00,40.00,8,4,12,0.00
2013-11-2,69.0,50.6,33.0,30.0,24.5,16.0,77,43,15,0.00,40.00,5,4,8,0.00
2013-11-3,54.0,38.4,33.0,32.0,28.8,20.0,96,73,26,0.00,40.00,7,3,18,0.00
2013-11-4,35.0,32.4,30.0,28.0,23.9,21.0,79,71,69,0.00,40.00,5,3,8,0.06
2013-11-5,38.0,29.5,23.0,23.0,19.6,16.0,82,67,51,0.00,40.00,7,4,9,0.03
2013-11-6,48.0,37.6,27.0,26.0,21.5,15.0,72,54,35,0.00,40.00,9,-186,11,0.00
2013-11-7,56.0,44.1,30.0,31.0,26.8,24.0,78,53,31,0.00,40.00,5,3,6,0.00
2013-11-8,63.0,51.0,40.0,27.0,23.9,20.0,58,37,19,0.00,40.00,6,4,13,0.00
2013-11-9,56.0,39.0,33.0,33.0,21.7,-99.9,71,58,40,0.00,40.00,5,4,6,0.00
2013-11-10,63.0,47.2,34.0,30.0,24.7,20.0,68,44,24,0.00,40.00,7,4,9,0.00
2013-11-11,61.0,46.3,35.0,27.0,24.4,22.0,61,44,26,0.00,40.00,5,3,6,0.00
2013-11-12,63.0,45.2,36.0,29.0,24.8,22.0,60,46,28,0.00,40.00,6,4,8,0.00
2013-11-13,57.0,46.8,40.0,32.0,29.2,25.0,61,50,35,0.00,40.00,5,3,7,0.00
2013-11-14,54.0,41.8,33.0,31.0,27.4,23.0,76,58,32,0.00,40.00,6,4,9,0.00
2013-11-15,41.0,36.5,31.0,35.0,31.0,23.0,95,82,48,0.00,40.00,6,4,8,0.01
2013-11-16,35.0,31.2,30.0,33.0,23.2,-99.9,96,83,76,0.00,40.00,6,3,8,0.06
2013-11-17,51.0,39.1,32.0,33.0,30.8,24.0,95,75,51,0.00,40.00,6,4,7,0.00
2013-11-18,60.0,43.8,33.0,30.0,26.3,23.0,72,53,28,0.00,40.00,4,2,6,0.00
2013-11-19,54.0,44.6,40.0,41.0,33.2,25.0,84,66,44,0.00,40.00,6,4,12,0.00
2013-11-20,47.0,42.0,39.0,41.0,36.7,32.0,97,82,67,0.00,40.00,4,2,6,0.02
2013-11-21,39.0,34.7,31.0,39.0,31.4,19.0,98,89,49,0.00,40.00,10,4,17,0.03
2013-11-22,37.0,35.7,33.0,19.0,13.9,10.0,49,41,32,0.00,40.00,10,8,20,0.00
2013-11-23,47.0,39.1,40.0,30.0,19.1,-99.9,66,58,38,0.00,40.00,13,8,19,0.00
2013-11-24,41.0,37.7,32.0,34.0,31.7,27.0,92,80,59,0.00,40.00,4,3,6,0.00
2013-11-25,39.0,32.4,29.0,30.0,25.5,19.0,91,76,63,0.00,40.00,6,4,7,0.00
2013-11-26,46.0,34.0,25.0,28.0,24.2,20.0,86,68,49,0.00,40.00,6,4,7,0.00
2013-11-27,51.0,37.0,27.0,28.0,23.8,20.0,77,61,34,0.00,40.00,5,3,7,0.00
2013-11-28,53.0,39.0,30.0,28.0,24.7,20.0,70,57,36,0.00,40.00,6,4,7,0.00
2013-11-29,48.0,37.6,31.0,27.0,24.1,22.0,73,59,43,0.00,40.00,6,4,8,0.00
2013-11-30,46.0,34.3,28.0,27.0,19.9,-99.9,76,62,47,0.00,40.00,6,4,8,0.00
2013-12-1,52.0,39.9,30.0,29.0,25.4,24.0,77,58,40,0.00,40.00,5,4,8,0.00
2013-12-2,51.0,43.9,36.0,27.0,25.5,22.0,65,50,32,0.00,40.00,5,4,9,0.00
2013-12-3,50.0,29.5,21.0,34.0,23.5,19.0,96,84,35,0.00,40.00,7,4,15,0.00
2013-12-4,21.0,16.6,9.0,16.0,6.9,0.0,82,65,49,0.00,40.00,7,5,9,0.00
2013-12-5,11.0,4.3,-5.0,-1.0,-6.5,-13.0,67,60,53,0.00,40.00,5,4,7,0.00
2013-12-6,13.0,6.3,-5.0,0.0,-4.3,-13.0,68,61,50,0.00,40.00,6,4,8,0.00
2013-12-7,26.0,20.2,15.0,22.0,7.9,-99.9,91,69,53,0.00,40.00,11,5,17,0.00
2013-12-8,18.0,14.6,8.0,14.0,6.8,-1.0,87,71,59,0.00,40.00,6,4,9,0.00
2013-12-9,14.0,8.0,0.0,5.0,0.5,-7.0,83,71,59,0.00,40.00,7,4,9,0.00
2013-12-10,14.0,6.5,-3.0,3.0,-2.3,-9.0,77,67,52,0.00,40.00,5,2,7,0.00
2013-12-11,18.0,9.4,3.0,6.0,1.0,-3.0,80,69,54,0.00,40.00,5,4,6,0.00
2013-12-12,20.0,10.8,2.0,9.0,3.5,-3.0,82,74,60,0.00,40.00,5,3,6,0.00
2013-12-13,20.0,13.5,5.0,15.0,8.4,1.0,84,80,71,0.00,40.00,4,3,6,0.00
2013-12-14,24.0,18.6,16.0,17.0,9.5,-99.9,86,81,74,0.00,40.00,5,3,6,0.00
2013-12-15,26.0,17.3,11.0,16.0,11.9,7.0,86,80,66,0.00,40.00,4,3,5,0.00
2013-12-16,29.0,19.0,13.0,17.0,12.4,9.0,86,76,62,0.00,40.00,4,3,6,0.07
2013-12-17,30.0,20.6,13.0,18.0,13.2,9.0,89,74,60,0.00,40.00,5,3,6,0.02
2013-12-18,43.0,37.2,34.0,37.0,28.8,21.0,92,73,52,0.00,40.00,7,4,11,0.04
2013-12-19,43.0,34.4,29.0,36.0,32.2,28.0,97,92,78,0.00,40.00,7,4,11,0.07
2013-12-20,29.0,23.8,17.0,26.0,17.8,12.0,88,77,68,0.00,40.00,6,4,8,0.06
2013-12-21,31.0,24.5,20.0,26.0,18.1,-99.9,92,84,75,0.00,40.00,5,2,7,0.00
2013-12-23,37.0,32.9,29.0,32.0,29.8,27.0,92,88,81,0.00,40.00,4,2,6,0.14
2013-12-24,38.0,33.7,26.0,31.0,23.6,12.0,89,69,39,0.00,40.00,6,4,9,0.00
2013-12-25,29.0,22.5,14.0,13.0,10.1,5.0,67,59,50,0.00,40.00,4,2,6,0.00
2013-12-26,31.0,17.8,13.0,16.0,8.3,5.0,77,66,52,0.00,40.00,6,5,8,0.00
2013-12-27,36.0,22.9,14.0,14.0,10.9,8.0,80,62,39,0.00,40.00,5,2,6,0.00
2013-12-28,31.0,23.9,20.0,19.0,11.2,-99.9,79,66,59,0.00,40.00,10,3,11,0.00
2013-12-29,25.0,19.1,13.0,16.0,13.2,9.0,89,77,67,0.00,40.00,5,3,7,0.00
2013-12-30,26.0,19.7,15.0,13.0,12.1,10.0,80,72,56,0.00,40.00,4,3,6,0.00
2013-12-31,35.0,28.7,23.0,26.0,20.6,17.0,79,71,60,0.00,40.00,4,3,5,0.00
2014-1-1,31.0,29.7,29.0,23.0,22.5,22.0,74,74,72,0.00,40.00,4,4,5,0.00
2014-1-2,39.0,26.8,21.0,21.0,17.2,15.0,80,69,48,0.00,40.00,5,3,5,0.00